createdAt,value
2023-05-19T00:01:10.257Z,10.48
2023-05-19T00:04:16.913Z,10.41
2023-05-19T00:07:31.795Z,10.38
2023-05-19T00:10:39.142Z,10.42
2023-05-19T00:13:49.730Z,10.48
2023-05-19T00:16:58.130Z,10.59
2023-05-19T00:20:07.483Z,10.48
2023-05-19T00:23:15.285Z,10.43
2023-05-19T00:26:22.783Z,10.52
2023-05-19T00:29:30.798Z,10.61
2023-05-19T00:32:37.101Z,10.63
2023-05-19T00:35:43.441Z,10.68
2023-05-19T00:38:51.407Z,10.69
2023-05-19T00:41:57.754Z,10.55
2023-05-19T00:45:04.005Z,10.71
2023-05-19T00:48:10.199Z,10.51
2023-05-19T00:51:17.641Z,10.51
2023-05-19T00:54:25.918Z,10.19
2023-05-19T00:57:32.057Z,10.49
2023-05-19T01:00:38.845Z,10.46
2023-05-19T01:03:47.346Z,10.42
2023-05-19T01:06:55.159Z,10.54
2023-05-19T01:10:03.128Z,10.44
2023-05-19T01:13:09.856Z,10.61
2023-05-19T01:16:32.852Z,10.71
2023-05-19T01:19:56.529Z,10.75
2023-05-19T01:23:29.432Z,10.85
2023-05-19T01:26:55.964Z,10.76
2023-05-19T01:30:32.617Z,10.70
2023-05-19T01:33:41.131Z,10.66
2023-05-19T01:36:50.031Z,10.42
2023-05-19T01:39:56.993Z,10.58
2023-05-19T01:43:04.097Z,10.55
2023-05-19T01:46:12.009Z,10.67
2023-05-19T01:49:18.522Z,10.52
2023-05-19T01:52:24.811Z,10.51
2023-05-19T01:55:31.032Z,10.51
2023-05-19T01:58:45.407Z,10.48
2023-05-19T02:01:55.190Z,10.38
2023-05-19T02:05:09.208Z,10.33
2023-05-19T02:08:22.075Z,10.30
2023-05-19T02:11:37.643Z,10.08
2023-05-19T02:14:51.026Z,10.06
2023-05-19T02:18:00.420Z,10.05
2023-05-19T02:21:07.013Z,9.81
2023-05-19T02:24:13.498Z,10.00
2023-05-19T02:27:19.755Z,9.82
2023-05-19T02:30:25.957Z,9.68
2023-05-19T02:33:33.796Z,9.76
2023-05-19T02:36:43.148Z,9.60
2023-05-19T02:39:49.215Z,9.56
2023-05-19T02:42:55.358Z,9.52
2023-05-19T02:46:01.607Z,9.56
2023-05-19T02:49:08.994Z,9.41
2023-05-19T02:52:15.248Z,9.44
2023-05-19T02:55:21.457Z,9.53
2023-05-19T02:58:27.874Z,9.49
2023-05-19T03:01:33.939Z,9.13
2023-05-19T03:04:43.192Z,9.23
2023-05-19T03:07:49.175Z,9.26
2023-05-19T03:10:55.257Z,9.18
2023-05-19T03:14:01.439Z,9.11
2023-05-19T03:17:10.427Z,8.77
2023-05-19T03:20:18.016Z,9.34
2023-05-19T03:23:24.253Z,9.27
2023-05-19T03:26:30.671Z,8.91
2023-05-19T03:29:37.048Z,9.05
2023-05-19T03:32:43.194Z,8.99
2023-05-19T03:35:50.850Z,9.37
2023-05-19T03:38:57.353Z,9.56
2023-05-19T03:42:03.757Z,9.20
2023-05-19T03:45:10.540Z,9.76
2023-05-19T03:48:19.080Z,9.92
2023-05-19T03:51:30.177Z,10.07
2023-05-19T03:54:39.016Z,9.70
2023-05-19T03:57:45.432Z,10.25
2023-05-19T04:00:51.745Z,10.24
2023-05-19T04:03:58.336Z,10.38
2023-05-19T04:07:06.074Z,10.32
2023-05-19T04:10:13.584Z,10.53
2023-05-19T04:13:19.857Z,10.81
2023-05-19T04:16:26.386Z,10.82
2023-05-19T04:19:32.715Z,10.84
2023-05-19T04:22:40.284Z,10.78
2023-05-19T04:25:48.858Z,10.75
2023-05-19T04:28:56.670Z,11.36
2023-05-19T04:32:06.930Z,11.34
2023-05-19T04:35:13.850Z,11.33
2023-05-19T04:38:22.380Z,11.28
2023-05-19T04:41:28.934Z,11.44
2023-05-19T04:44:35.271Z,11.09
2023-05-19T04:47:42.235Z,10.61
2023-05-19T04:50:49.687Z,11.15
2023-05-19T04:53:58.186Z,11.50
2023-05-19T04:57:05.308Z,11.44
2023-05-19T05:00:14.634Z,11.83
2023-05-19T05:03:23.152Z,12.66
2023-05-19T05:06:29.622Z,12.81
2023-05-19T05:09:37.534Z,12.05
2023-05-19T05:12:44.467Z,12.65
2023-05-19T05:15:52.514Z,12.45
2023-05-19T05:18:59.164Z,12.78
2023-05-19T05:22:06.347Z,12.88
2023-05-19T05:25:16.443Z,12.93
2023-05-19T05:28:23.157Z,13.26
2023-05-19T05:31:29.487Z,13.57
2023-05-19T05:34:37.807Z,13.86
2023-05-19T05:37:44.161Z,14.09
2023-05-19T05:40:52.080Z,13.74
2023-05-19T05:43:58.361Z,13.64
2023-05-19T05:47:05.229Z,14.51
2023-05-19T05:50:12.722Z,14.16
2023-05-19T05:53:20.807Z,13.82
2023-05-19T05:56:29.499Z,14.65
2023-05-19T05:59:35.656Z,14.60
2023-05-19T06:02:42.063Z,14.47
2023-05-19T06:05:48.597Z,14.91
2023-05-19T06:08:54.900Z,15.03
2023-05-19T06:12:02.761Z,15.08
2023-05-19T06:15:09.919Z,15.22
2023-05-19T06:18:16.780Z,14.78
2023-05-19T06:21:22.878Z,15.15
2023-05-19T06:24:29.183Z,16.06
2023-05-19T06:27:37.221Z,15.67
2023-05-19T06:30:43.382Z,15.59
2023-05-19T06:33:49.439Z,16.14
2023-05-19T06:36:55.487Z,15.97
2023-05-19T06:40:01.665Z,16.00
2023-05-19T06:43:09.549Z,15.39
2023-05-19T06:46:18.022Z,16.03
2023-05-19T06:49:24.231Z,16.98
2023-05-19T06:52:30.638Z,17.28
2023-05-19T06:55:43.876Z,16.99
2023-05-19T06:58:58.609Z,17.81
2023-05-19T07:02:05.497Z,18.17
2023-05-19T07:05:12.105Z,16.81
2023-05-19T07:08:18.409Z,17.17
2023-05-19T07:11:24.513Z,16.82
2023-05-19T07:14:32.056Z,16.94
2023-05-19T07:17:38.641Z,16.74
2023-05-19T07:20:44.686Z,17.27
2023-05-19T07:23:50.913Z,17.55
2023-05-19T07:26:57.138Z,17.53
2023-05-19T07:30:05.243Z,17.65
2023-05-19T07:33:11.423Z,17.67
2023-05-19T07:36:17.761Z,17.59
2023-05-19T07:39:27.992Z,18.02
2023-05-19T07:42:34.504Z,18.42
2023-05-19T07:45:42.342Z,18.21
2023-05-19T07:48:48.804Z,18.05
2023-05-19T07:51:55.169Z,17.38
2023-05-19T07:55:01.753Z,18.34
2023-05-19T07:58:08.466Z,18.21
2023-05-19T08:01:16.556Z,17.91
2023-05-19T08:04:23.128Z,18.60
2023-05-19T08:07:29.340Z,18.86
2023-05-19T08:10:36.019Z,19.02
2023-05-19T08:13:42.507Z,19.27
2023-05-19T08:16:50.182Z,17.80
2023-05-19T08:19:56.917Z,18.36
2023-05-19T08:23:04.366Z,18.73
2023-05-19T08:26:10.878Z,19.58
2023-05-19T08:29:17.462Z,20.23
2023-05-19T08:32:25.057Z,19.09
2023-05-19T08:35:31.996Z,20.35
2023-05-19T08:38:38.169Z,19.45
2023-05-19T08:41:44.355Z,20.16
2023-05-19T08:44:50.727Z,18.95
2023-05-19T08:47:58.708Z,20.13
2023-05-19T08:51:12.556Z,21.21
2023-05-19T08:54:20.892Z,21.17
2023-05-19T08:57:27.434Z,21.68
2023-05-19T09:00:34.455Z,21.15
2023-05-19T09:03:43.274Z,21.88
2023-05-19T09:06:50.457Z,21.09
2023-05-19T09:09:56.553Z,21.61
2023-05-19T09:13:03.003Z,21.41
2023-05-19T09:16:09.563Z,20.87
2023-05-19T09:19:17.550Z,20.93
2023-05-19T09:22:25.618Z,19.90
2023-05-19T09:25:32.376Z,19.94
2023-05-19T09:28:38.948Z,20.33
2023-05-19T09:31:52.489Z,20.22
2023-05-19T09:35:00.285Z,21.13
2023-05-19T09:38:06.504Z,20.42
2023-05-19T09:41:16.097Z,19.90
2023-05-19T09:44:29.053Z,20.00
2023-05-19T09:47:36.893Z,18.96
2023-05-19T09:50:46.888Z,20.97
2023-05-19T09:53:54.247Z,21.81
2023-05-19T09:57:01.389Z,22.44
2023-05-19T10:00:15.787Z,23.14
2023-05-19T10:03:24.080Z,22.21
2023-05-19T10:06:32.265Z,21.73
2023-05-19T10:09:39.416Z,20.98
2023-05-19T10:12:46.694Z,19.44
2023-05-19T10:15:59.438Z,20.46
2023-05-19T10:19:08.200Z,20.84
2023-05-19T10:22:15.584Z,21.97
2023-05-19T10:25:22.121Z,23.71
2023-05-19T10:28:36.909Z,21.29
2023-05-19T10:31:44.715Z,21.49
2023-05-19T10:35:08.889Z,22.02
2023-05-19T10:38:28.471Z,22.66
2023-05-19T10:41:44.003Z,21.58
2023-05-19T10:45:03.921Z,22.39
2023-05-19T10:48:12.800Z,23.15
2023-05-19T10:51:19.253Z,23.93
2023-05-19T10:54:43.717Z,22.86
2023-05-19T10:57:57.900Z,21.18
2023-05-19T11:01:08.279Z,23.78
2023-05-19T11:04:16.076Z,23.57
2023-05-19T11:07:24.866Z,25.44
2023-05-19T11:10:33.372Z,25.49
2023-05-19T11:13:42.592Z,23.30
2023-05-19T11:16:49.679Z,24.12
2023-05-19T11:19:56.859Z,24.30
2023-05-19T11:23:07.296Z,24.12
2023-05-19T11:26:14.877Z,24.33
2023-05-19T11:29:22.384Z,24.05
2023-05-19T11:32:30.024Z,24.76
2023-05-19T11:35:37.906Z,24.59
2023-05-19T11:38:44.588Z,23.84
2023-05-19T11:41:57.039Z,24.74
2023-05-19T11:45:03.477Z,22.42
2023-05-19T11:48:13.466Z,22.87
2023-05-19T11:51:22.967Z,21.74
2023-05-19T11:54:33.412Z,21.48
2023-05-19T11:57:44.720Z,20.39
2023-05-19T12:00:54.254Z,20.72
2023-05-19T12:04:00.813Z,20.47
2023-05-19T12:07:07.488Z,20.47
2023-05-19T12:10:13.702Z,20.14
2023-05-19T12:13:22.820Z,20.58
2023-05-19T12:16:35.520Z,22.03
2023-05-19T12:19:42.538Z,22.90
2023-05-19T12:22:49.698Z,22.61
2023-05-19T12:25:55.962Z,22.91
2023-05-19T12:29:03.701Z,23.10
2023-05-19T12:32:10.548Z,24.52
2023-05-19T12:35:17.473Z,23.11
2023-05-19T12:38:24.299Z,23.42
2023-05-19T12:41:30.869Z,24.07
2023-05-19T12:44:40.628Z,24.17
2023-05-19T12:47:49.637Z,21.83
2023-05-19T12:50:56.192Z,22.72
2023-05-19T12:54:04.048Z,22.92
2023-05-19T12:57:12.415Z,21.88
2023-05-19T13:00:22.861Z,22.21
2023-05-19T13:03:29.098Z,21.64
2023-05-19T13:06:35.325Z,22.37
2023-05-19T13:09:41.369Z,21.82
2023-05-19T13:12:47.648Z,21.99
2023-05-19T13:15:55.615Z,21.59
2023-05-19T13:19:02.151Z,21.69
2023-05-19T13:22:08.526Z,21.86
2023-05-19T13:25:14.433Z,21.43
2023-05-19T13:28:20.396Z,21.01
2023-05-19T13:31:27.900Z,20.89
2023-05-19T13:34:34.354Z,21.55
2023-05-19T13:37:40.743Z,21.71
2023-05-19T13:40:47.272Z,21.65
2023-05-19T13:43:53.783Z,22.00
2023-05-19T13:47:01.743Z,23.28
2023-05-19T13:50:09.091Z,23.84
2023-05-19T13:53:15.397Z,23.42
2023-05-19T13:56:21.693Z,21.92
2023-05-19T13:59:28.434Z,21.49
2023-05-19T14:02:36.478Z,20.96
2023-05-19T14:05:42.738Z,21.35
2023-05-19T14:08:48.960Z,22.73
2023-05-19T14:11:55.187Z,22.68
2023-05-19T14:15:02.833Z,23.58
2023-05-19T14:18:10.299Z,23.18
2023-05-19T14:21:16.980Z,24.08
2023-05-19T14:24:23.729Z,23.94
2023-05-19T14:27:29.787Z,22.91
2023-05-19T14:30:35.963Z,22.23
2023-05-19T14:33:44.190Z,21.17
2023-05-19T14:36:50.272Z,20.98
2023-05-19T14:39:57.030Z,20.75
2023-05-19T14:43:03.285Z,20.42
2023-05-19T14:46:09.208Z,20.66
2023-05-19T14:49:16.786Z,20.72
2023-05-19T14:52:23.403Z,20.54
2023-05-19T14:55:29.934Z,20.62
2023-05-19T14:58:36.208Z,20.62
2023-05-19T15:01:43.635Z,21.19
2023-05-19T15:04:51.306Z,24.86
2023-05-19T15:07:57.759Z,24.89
2023-05-19T15:11:03.958Z,26.65
2023-05-19T15:14:10.067Z,23.11
2023-05-19T15:17:16.762Z,21.07
2023-05-19T15:20:24.210Z,20.69
2023-05-19T15:23:30.435Z,20.61
2023-05-19T15:26:36.365Z,20.08
2023-05-19T15:29:42.299Z,20.03
2023-05-19T15:32:48.716Z,19.31
2023-05-19T15:35:56.212Z,19.52
2023-05-19T15:39:03.836Z,19.27
2023-05-19T15:42:10.212Z,19.37
2023-05-19T15:45:16.324Z,19.20
2023-05-19T15:48:22.499Z,19.20
2023-05-19T15:51:31.365Z,19.20
2023-05-19T15:54:37.586Z,18.89
2023-05-19T15:57:43.847Z,19.05
2023-05-19T16:00:50.150Z,18.89
2023-05-19T16:03:56.637Z,18.68
2023-05-19T16:07:04.034Z,18.78
2023-05-19T16:10:10.957Z,18.68
2023-05-19T16:13:17.213Z,18.69
2023-05-19T16:16:23.192Z,18.69
2023-05-19T16:19:29.392Z,18.27
2023-05-19T16:22:36.952Z,18.53
2023-05-19T16:25:43.320Z,18.49
2023-05-19T16:28:49.341Z,18.59
2023-05-19T16:31:55.311Z,18.76
2023-05-19T16:35:01.301Z,18.73
2023-05-19T16:38:08.736Z,18.34
2023-05-19T16:41:14.952Z,18.11
2023-05-19T16:44:20.976Z,18.12
2023-05-19T16:47:27.216Z,18.23
2023-05-19T16:50:33.383Z,18.13
2023-05-19T16:53:41.342Z,17.74
2023-05-19T16:56:47.377Z,17.96
2023-05-19T16:59:53.384Z,17.56
2023-05-19T17:02:59.469Z,16.95
2023-05-19T17:06:05.717Z,17.48
2023-05-19T17:09:13.266Z,17.10
2023-05-19T17:12:19.437Z,16.89
2023-05-19T17:15:25.459Z,16.86
2023-05-19T17:18:31.813Z,17.29
2023-05-19T17:21:38.354Z,16.46
2023-05-19T17:24:46.082Z,16.44
2023-05-19T17:27:52.507Z,16.49
2023-05-19T17:30:58.856Z,16.10
2023-05-19T17:34:04.844Z,15.82
2023-05-19T17:37:10.931Z,16.09
2023-05-19T17:40:18.511Z,16.07
2023-05-19T17:43:24.615Z,16.17
2023-05-19T17:46:34.765Z,15.49
2023-05-19T17:49:41.613Z,15.43
2023-05-19T17:52:48.926Z,15.20
2023-05-19T17:56:00.515Z,15.51
2023-05-19T17:59:07.591Z,15.44
2023-05-19T18:02:15.337Z,15.16
2023-05-19T18:05:22.878Z,15.34
2023-05-19T18:08:30.283Z,15.11
2023-05-19T18:11:38.571Z,14.87
2023-05-19T18:14:44.926Z,15.05
2023-05-19T18:17:51.615Z,15.14
2023-05-19T18:20:57.849Z,15.15
2023-05-19T18:24:05.527Z,14.74
2023-05-19T18:27:13.280Z,14.40
2023-05-19T18:30:20.556Z,14.19
2023-05-19T18:33:28.554Z,14.03
2023-05-19T18:36:36.549Z,13.84
2023-05-19T18:39:42.860Z,13.75
2023-05-19T18:42:51.204Z,13.45
2023-05-19T18:45:58.406Z,13.58
2023-05-19T18:49:05.763Z,13.68
2023-05-19T18:52:12.411Z,13.54
2023-05-19T18:55:19.082Z,13.43
2023-05-19T18:58:26.916Z,13.14
2023-05-19T19:01:33.331Z,13.37
2023-05-19T19:04:39.636Z,12.75
2023-05-19T19:07:45.867Z,13.03
2023-05-19T19:10:53.672Z,13.33
2023-05-19T19:14:01.572Z,13.00
2023-05-19T19:17:08.051Z,13.14
2023-05-19T19:20:14.889Z,13.22
2023-05-19T19:23:21.074Z,13.37
2023-05-19T19:26:29.143Z,13.30
2023-05-19T19:29:36.672Z,13.17
2023-05-19T19:32:42.852Z,13.17
2023-05-19T19:35:49.016Z,13.09
2023-05-19T19:38:55.081Z,12.62
2023-05-19T19:42:01.079Z,11.89
2023-05-19T19:45:09.477Z,11.90
2023-05-19T19:48:15.800Z,11.82
2023-05-19T19:51:21.963Z,12.33
2023-05-19T19:54:27.987Z,12.42
2023-05-19T19:57:34.419Z,11.97
2023-05-19T20:00:42.140Z,11.99
2023-05-19T20:03:48.522Z,11.92
2023-05-19T20:06:54.606Z,12.28
2023-05-19T20:10:00.887Z,12.27
2023-05-19T20:13:07.588Z,12.31
2023-05-19T20:16:15.338Z,11.73
2023-05-19T20:19:22.039Z,12.13
2023-05-19T20:22:28.028Z,12.34
2023-05-19T20:25:34.930Z,12.31
2023-05-19T20:28:41.777Z,12.37
2023-05-19T20:31:49.673Z,12.29
2023-05-19T20:34:55.956Z,12.51
2023-05-19T20:38:01.970Z,12.46
2023-05-19T20:41:08.356Z,12.47
2023-05-19T20:44:14.786Z,12.50
2023-05-19T20:47:22.654Z,12.74
2023-05-19T20:50:29.013Z,12.63
2023-05-19T20:53:35.223Z,12.62
2023-05-19T20:56:41.484Z,12.32
2023-05-19T20:59:47.612Z,12.26
2023-05-19T21:02:55.346Z,12.20
2023-05-19T21:06:01.827Z,12.28
2023-05-19T21:09:08.307Z,12.45
2023-05-19T21:12:16.267Z,12.44
2023-05-19T21:15:22.580Z,12.38
2023-05-19T21:18:30.148Z,12.42
2023-05-19T21:21:38.435Z,12.46
2023-05-19T21:24:44.687Z,12.21
2023-05-19T21:27:51.188Z,12.44
2023-05-19T21:30:57.566Z,12.44
2023-05-19T21:34:07.277Z,12.53
2023-05-19T21:37:13.904Z,12.53
2023-05-19T21:40:20.358Z,12.73
2023-05-19T21:43:26.592Z,12.72
2023-05-19T21:46:32.835Z,12.88
2023-05-19T21:49:40.829Z,12.67
2023-05-19T21:52:47.072Z,12.59
2023-05-19T21:55:53.115Z,12.73
2023-05-19T21:58:59.230Z,12.67
2023-05-19T22:02:05.804Z,12.77
2023-05-19T22:05:13.983Z,12.69
2023-05-19T22:08:22.423Z,12.74
2023-05-19T22:11:28.471Z,12.87
2023-05-19T22:14:34.776Z,12.71
2023-05-19T22:17:41.070Z,12.70
2023-05-19T22:20:48.547Z,12.75
2023-05-19T22:23:54.941Z,12.65
2023-05-19T22:27:01.058Z,12.79
2023-05-19T22:30:08.726Z,12.66
2023-05-19T22:33:15.193Z,12.75
2023-05-19T22:36:23.170Z,12.82
2023-05-19T22:39:29.748Z,12.77
2023-05-19T22:42:36.025Z,12.50
2023-05-19T22:45:42.229Z,12.33
2023-05-19T22:48:48.578Z,12.40
2023-05-19T22:51:56.273Z,12.22
2023-05-19T22:55:02.601Z,12.27
2023-05-19T22:58:09.151Z,12.39
2023-05-19T23:01:15.206Z,12.26
2023-05-19T23:04:21.310Z,12.40
2023-05-19T23:07:28.708Z,12.27
2023-05-19T23:10:34.912Z,12.24
2023-05-19T23:13:41.141Z,12.21
2023-05-19T23:16:47.459Z,12.32
2023-05-19T23:19:53.621Z,11.82
2023-05-19T23:23:01.288Z,11.97
2023-05-19T23:26:07.863Z,11.96
2023-05-19T23:29:14.898Z,11.69
2023-05-19T23:32:21.279Z,11.87
2023-05-19T23:35:27.321Z,11.71
2023-05-19T23:38:34.906Z,11.27
2023-05-19T23:41:41.320Z,11.36
2023-05-19T23:44:47.523Z,11.17
2023-05-19T23:47:53.697Z,11.12
2023-05-19T23:51:00.022Z,11.28
2023-05-19T23:54:07.583Z,11.24
2023-05-19T23:57:14.073Z,11.55
